createdAt,value
2022-09-17T00:04:54.761Z,24.16
2022-09-17T00:09:57.937Z,24.25
2022-09-17T00:15:01.040Z,24.33
2022-09-17T00:20:07.871Z,24.52
2022-09-17T00:25:11.256Z,24.57
2022-09-17T00:30:14.781Z,24.57
2022-09-17T00:35:18.172Z,24.90
2022-09-17T00:40:22.008Z,24.93
2022-09-17T00:45:26.253Z,25.12
2022-09-17T00:50:36.882Z,24.94
2022-09-17T00:55:41.827Z,24.75
2022-09-17T01:08:37.738Z,24.47
2022-09-17T01:21:36.275Z,24.64
2022-09-17T01:26:45.046Z,24.41
2022-09-17T01:32:32.505Z,24.36
2022-09-17T01:37:50.993Z,24.36
2022-09-17T01:42:56.940Z,24.75
2022-09-17T01:48:21.802Z,25.12
2022-09-17T01:53:32.833Z,25.00
2022-09-17T01:58:42.997Z,24.86
2022-09-17T02:04:10.006Z,24.78
2022-09-17T02:09:25.795Z,25.04
2022-09-17T02:14:35.784Z,24.86
2022-09-17T02:19:41.602Z,24.95
2022-09-17T02:24:57.223Z,24.74
2022-09-17T02:30:01.049Z,24.36
2022-09-17T02:35:07.050Z,23.88
2022-09-17T02:40:17.640Z,23.38
2022-09-17T02:45:42.745Z,23.27
2022-09-17T02:51:21.114Z,22.99
2022-09-17T02:56:52.469Z,22.88
2022-09-17T03:02:17.859Z,22.92
2022-09-17T03:07:23.414Z,22.53
2022-09-17T03:12:27.643Z,22.60
2022-09-17T03:17:31.347Z,22.84
2022-09-17T03:22:35.897Z,23.05
2022-09-17T03:27:39.314Z,23.27
2022-09-17T03:32:43.497Z,23.18
2022-09-17T03:37:47.670Z,23.64
2022-09-17T03:42:51.310Z,23.93
2022-09-17T03:47:54.294Z,23.55
2022-09-17T03:52:57.846Z,23.21
2022-09-17T03:58:01.202Z,23.15
2022-09-17T04:03:05.631Z,23.00
2022-09-17T04:08:09.067Z,22.60
2022-09-17T04:13:13.505Z,22.06
2022-09-17T04:18:16.963Z,21.86
2022-09-17T04:23:20.509Z,21.88
2022-09-17T04:28:23.860Z,21.66
2022-09-17T04:33:26.854Z,21.36
2022-09-17T04:38:29.827Z,21.38
2022-09-17T04:43:33.607Z,21.84
2022-09-17T04:48:36.726Z,22.02
2022-09-17T04:53:40.334Z,22.26
2022-09-17T04:58:44.259Z,22.37
2022-09-17T05:03:48.048Z,22.55
2022-09-17T05:08:50.982Z,23.03
2022-09-17T05:13:54.050Z,22.94
2022-09-17T05:18:58.422Z,23.01
2022-09-17T05:24:01.931Z,22.82
2022-09-17T05:29:05.391Z,22.50
2022-09-17T05:34:09.510Z,22.50
2022-09-17T05:39:13.169Z,22.41
2022-09-17T05:44:18.199Z,22.05
2022-09-17T05:49:21.475Z,22.00
2022-09-17T05:54:24.529Z,21.85
2022-09-17T05:59:28.314Z,21.86
2022-09-17T06:04:34.679Z,21.98
2022-09-17T06:09:39.235Z,22.08
2022-09-17T06:14:42.382Z,22.13
2022-09-17T06:19:46.111Z,22.35
2022-09-17T06:24:50.299Z,22.66
2022-09-17T06:29:53.771Z,23.29
2022-09-17T06:34:57.567Z,23.66
2022-09-17T06:40:01.124Z,24.52
2022-09-17T06:45:09.293Z,24.76
2022-09-17T06:50:14.723Z,25.13
2022-09-17T06:55:18.135Z,25.46
2022-09-17T07:00:22.086Z,25.78
2022-09-17T07:05:26.344Z,26.12
2022-09-17T07:10:32.473Z,26.62
2022-09-17T07:15:36.160Z,26.81
2022-09-17T07:20:39.878Z,26.79
2022-09-17T07:25:43.331Z,26.91
2022-09-17T07:30:46.848Z,28.08
2022-09-17T07:35:58.193Z,28.40
2022-09-17T07:41:04.689Z,29.01
2022-09-17T07:46:10.908Z,31.08
2022-09-17T07:51:20.407Z,32.14
2022-09-17T07:56:25.418Z,32.19
2022-09-17T08:01:28.375Z,32.94
2022-09-17T08:06:32.292Z,32.76
2022-09-17T08:11:55.241Z,32.18
2022-09-17T08:16:59.533Z,32.29
2022-09-17T08:22:03.501Z,32.79
2022-09-17T08:27:06.528Z,32.72
2022-09-17T08:32:09.913Z,32.78
2022-09-17T08:37:12.911Z,32.44
2022-09-17T08:42:37.861Z,32.19
2022-09-17T08:47:43.986Z,32.73
2022-09-17T08:53:13.980Z,32.75
2022-09-17T08:58:40.971Z,33.55
2022-09-17T09:04:19.596Z,33.72
2022-09-17T09:09:29.415Z,34.67
2022-09-17T09:14:40.683Z,34.38
2022-09-17T09:19:46.484Z,34.16
2022-09-17T09:25:07.081Z,34.52
2022-09-17T09:30:11.936Z,33.92
2022-09-17T09:35:21.308Z,33.87
2022-09-17T09:41:05.848Z,33.82
2022-09-17T09:46:39.652Z,34.41
2022-09-17T09:52:12.139Z,35.23
2022-09-17T09:57:28.126Z,34.30
2022-09-17T10:02:32.730Z,34.25
2022-09-17T10:07:44.955Z,33.75
2022-09-17T10:12:47.908Z,34.15
2022-09-17T10:18:14.373Z,34.23
2022-09-17T10:23:18.176Z,34.11
2022-09-17T10:28:29.395Z,34.91
2022-09-17T10:33:34.339Z,34.34
2022-09-17T10:38:42.430Z,34.88
2022-09-17T10:43:46.647Z,34.21
2022-09-17T10:49:08.811Z,33.81
2022-09-17T10:54:19.921Z,34.12
2022-09-17T10:59:38.736Z,34.92
2022-09-17T11:05:25.253Z,34.20
2022-09-17T11:10:33.969Z,34.96
2022-09-17T11:16:15.575Z,34.34
2022-09-17T11:21:28.650Z,34.99
2022-09-17T11:26:57.556Z,34.55
2022-09-17T11:32:11.190Z,35.17
2022-09-17T11:37:25.855Z,35.12
2022-09-17T11:42:38.237Z,35.65
2022-09-17T11:47:52.068Z,35.22
2022-09-17T11:53:08.277Z,34.79
2022-09-17T11:58:21.688Z,33.53
2022-09-17T12:03:36.061Z,34.15
2022-09-17T12:08:59.707Z,34.01
2022-09-17T12:14:15.022Z,34.73
2022-09-17T12:19:22.907Z,34.55
2022-09-17T12:24:31.209Z,35.01
2022-09-17T12:30:06.669Z,34.36
2022-09-17T12:36:03.062Z,34.43
2022-09-17T12:41:18.997Z,33.35
2022-09-17T12:46:43.662Z,33.55
2022-09-17T12:51:53.043Z,34.26
2022-09-17T12:57:17.919Z,34.23
2022-09-17T13:02:21.025Z,33.81
2022-09-17T13:07:48.973Z,33.90
2022-09-17T13:13:17.586Z,33.87
2022-09-17T13:18:35.353Z,34.31
2022-09-17T13:23:43.661Z,33.09
2022-09-17T13:28:52.152Z,33.60
2022-09-17T13:34:02.252Z,34.09
2022-09-17T13:39:08.711Z,33.89
2022-09-17T13:44:13.059Z,34.49
2022-09-17T13:49:17.292Z,34.81
2022-09-17T13:54:23.046Z,33.99
2022-09-17T13:59:28.823Z,34.04
2022-09-17T14:04:42.828Z,33.54
2022-09-17T14:10:00.657Z,32.37
2022-09-17T14:15:03.781Z,33.46
2022-09-17T14:20:09.584Z,33.83
2022-09-17T14:25:19.889Z,34.04
2022-09-17T14:30:34.521Z,33.52
2022-09-17T14:35:49.670Z,33.66
2022-09-17T14:41:05.569Z,33.59
2022-09-17T14:46:14.815Z,33.46
2022-09-17T14:51:18.832Z,33.52
2022-09-17T14:56:23.823Z,33.08
2022-09-17T15:01:31.670Z,32.83
2022-09-17T15:06:35.129Z,32.96
2022-09-17T15:11:42.141Z,32.01
2022-09-17T15:16:54.662Z,31.46
2022-09-17T15:22:07.948Z,30.98
2022-09-17T15:27:15.975Z,30.98
2022-09-17T15:32:19.845Z,30.32
2022-09-17T15:37:28.082Z,30.33
2022-09-17T15:42:31.625Z,29.95
2022-09-17T15:47:54.299Z,29.30
2022-09-17T15:53:09.904Z,28.98
2022-09-17T15:58:28.284Z,28.73
2022-09-17T16:03:40.707Z,28.68
2022-09-17T16:08:48.965Z,27.74
2022-09-17T16:13:54.393Z,27.48
2022-09-17T16:18:57.560Z,26.99
2022-09-17T16:24:01.216Z,26.62
2022-09-17T16:29:16.257Z,26.41
2022-09-17T16:34:20.146Z,25.61
2022-09-17T16:39:24.710Z,25.95
2022-09-17T16:44:28.727Z,25.58
2022-09-17T16:49:33.072Z,25.39
2022-09-17T16:54:36.463Z,25.24
2022-09-17T16:59:40.125Z,24.93
2022-09-17T17:04:43.922Z,24.90
2022-09-17T17:09:48.636Z,24.57
2022-09-17T17:14:52.808Z,24.31
2022-09-17T17:19:56.436Z,24.15
2022-09-17T17:24:59.586Z,24.14
2022-09-17T17:30:04.934Z,24.04
2022-09-17T17:35:09.245Z,23.79
2022-09-17T17:40:12.353Z,23.76
2022-09-17T17:45:16.138Z,23.64
2022-09-17T17:50:19.172Z,23.38
2022-09-17T17:55:22.799Z,23.46
2022-09-17T18:00:26.061Z,23.40
2022-09-17T18:05:30.075Z,22.99
2022-09-17T18:10:33.091Z,22.58
2022-09-17T18:15:36.462Z,22.54
2022-09-17T18:20:39.467Z,22.51
2022-09-17T18:25:42.926Z,22.36
2022-09-17T18:30:46.407Z,22.41
2022-09-17T18:35:49.957Z,22.27
2022-09-17T18:40:53.547Z,22.50
2022-09-17T18:45:58.416Z,22.54
2022-09-17T18:51:04.347Z,22.32
2022-09-17T18:56:10.983Z,22.09
2022-09-17T19:01:15.103Z,21.90
2022-09-17T19:06:18.733Z,21.81
2022-09-17T19:11:22.170Z,21.86
2022-09-17T19:16:25.379Z,21.65
2022-09-17T19:21:28.803Z,21.63
2022-09-17T19:26:32.200Z,21.80
2022-09-17T19:31:35.391Z,21.78
2022-09-17T19:36:38.848Z,21.94
2022-09-17T19:41:42.656Z,22.06
2022-09-17T19:46:47.370Z,21.92
2022-09-17T19:51:50.925Z,21.76
2022-09-17T19:56:54.388Z,21.67
2022-09-17T20:01:57.970Z,21.43
2022-09-17T20:07:03.992Z,21.28
2022-09-17T20:12:07.112Z,21.26
2022-09-17T20:17:12.479Z,21.28
2022-09-17T20:22:15.428Z,21.35
2022-09-17T20:27:19.001Z,21.32
2022-09-17T20:32:22.299Z,21.04
2022-09-17T20:38:08.366Z,20.54
2022-09-17T20:42:48.600Z,20.17
2022-09-17T20:47:51.733Z,19.93
2022-09-17T20:52:55.382Z,19.91
2022-09-17T20:57:58.384Z,19.88
2022-09-17T21:03:02.017Z,20.54
2022-09-17T21:08:06.030Z,20.99
2022-09-17T21:13:10.756Z,21.38
2022-09-17T21:18:15.965Z,21.54
2022-09-17T21:23:26.625Z,20.96
2022-09-17T21:28:31.434Z,20.63
2022-09-17T21:33:34.442Z,20.42
2022-09-17T21:38:38.702Z,19.99
2022-09-17T21:43:43.976Z,19.75
2022-09-17T21:48:52.358Z,19.68
2022-09-17T21:53:58.094Z,19.69
2022-09-17T21:59:06.437Z,19.60
2022-09-17T22:04:15.949Z,19.91
2022-09-17T22:09:22.506Z,20.36
2022-09-17T22:14:26.617Z,19.78
2022-09-17T22:19:29.603Z,19.25
2022-09-17T22:24:33.038Z,19.01
2022-09-17T22:29:36.132Z,18.77
2022-09-17T22:34:39.053Z,18.43
2022-09-17T22:39:42.001Z,18.40
2022-09-17T22:44:45.186Z,18.14
2022-09-17T22:49:48.635Z,18.12
2022-09-17T22:54:51.812Z,18.08
2022-09-17T22:59:54.732Z,17.97
2022-09-17T23:04:58.942Z,17.80
2022-09-17T23:10:02.501Z,17.72
2022-09-17T23:15:06.315Z,17.89
2022-09-17T23:20:09.638Z,18.02
2022-09-17T23:25:12.705Z,18.01
2022-09-17T23:30:15.698Z,17.92
2022-09-17T23:35:19.219Z,17.75
2022-09-17T23:40:23.759Z,17.79
2022-09-17T23:45:27.057Z,17.86
2022-09-17T23:50:30.036Z,17.93
2022-09-17T23:55:33.483Z,17.90
